Time;durP1;ratioP1;P1;durP2;ratioP2;P2;SDS_P1;SDS_P2;PMS_P1;PMS_P2;Temp;Humidity;BMP_temperature;BMP_pressure;BME280_temperature;BME280_humidity;BME280_pressure;Samples;Min_cycle;Max_cycle;Signal;HPM_P1;HPM_P2
2021/05/20 00:00:19;;;;;;;;;;;15.00;99.90;;;14.77;78.95;101145.41;5034793;28;19925;-63
2021/05/20 00:02:48;;;;;;;;;;;15.20;99.90;;;14.89;78.18;101144.84;5052752;28;20329;-65
2021/05/20 00:05:16;;;;;;;;;;;15.30;99.90;;;14.98;77.69;101145.69;5052408;28;19930;-63
2021/05/20 00:07:44;;;;;;;;;;;15.30;99.90;;;15.04;76.86;101137.09;5052022;28;19997;-64
2021/05/20 00:10:13;;;;;;;;;;;15.40;99.90;;;15.10;75.95;101132.31;5052939;28;19925;-63
2021/05/20 00:12:40;;;;;;;;;;;15.40;99.90;;;15.14;75.02;101131.34;5052621;28;19936;-62
2021/05/20 00:15:08;;;;;;;;;;;15.50;99.90;;;15.18;74.40;101121.44;5052249;28;19929;-63
2021/05/20 00:17:35;;;;;;;;;;;15.60;99.90;;;15.26;74.02;101122.59;5051840;28;19929;-63
2021/05/20 00:20:05;;;;;;;;;;;15.60;99.90;;;15.31;73.76;101126.00;5052485;28;19928;-62
2021/05/20 00:22:32;;;;;;;;;;;15.70;99.90;;;15.36;73.66;101124.25;5052559;28;20382;-62
2021/05/20 00:24:59;;;;;;;;;;;15.70;99.90;;;15.37;74.57;101125.84;5052146;28;19925;-65
2021/05/20 00:27:27;;;;;;;;;;;15.70;99.90;;;15.30;74.92;101118.94;5051787;28;19932;-65
2021/05/20 00:29:55;;;;;;;;;;;15.70;99.90;;;15.18;74.82;101121.44;5052524;28;19935;-62
2021/05/20 00:32:23;;;;;;;;;;;15.60;99.90;;;15.12;74.87;101124.63;5052322;28;19931;-62
2021/05/20 00:34:50;;;;;;;;;;;15.50;99.90;;;15.09;74.75;101127.97;5052007;28;19931;-64
2021/05/20 00:37:18;;;;;;;;;;;15.50;99.90;;;14.97;75.46;101130.44;5051445;28;19928;-65
2021/05/20 00:39:46;;;;;;;;;;;15.40;99.90;;;15.00;74.85;101129.84;5052542;28;19924;-64
2021/05/20 00:42:13;;;;;;;;;;;15.40;99.90;;;15.00;74.95;101129.84;5052589;28;19925;-64
2021/05/20 00:44:51;;;;;;;;;;;15.40;99.90;;;15.04;74.55;101130.81;5051872;28;19925;-64
2021/05/20 00:47:19;;;;;;;;;;;15.40;99.90;;;15.04;74.48;101131.63;5051280;28;20271;-64
2021/05/20 00:49:46;;;;;;;;;;;15.40;99.90;;;14.99;74.33;101134.47;5052456;28;19979;-64
2021/05/20 00:52:14;;;;;;;;;;;15.30;99.90;;;15.01;73.95;101134.19;5052387;28;19928;-65
2021/05/20 00:54:42;;;;;;;;;;;15.30;99.90;;;14.98;74.49;101132.88;5051465;28;19929;-65
2021/05/20 00:57:09;;;;;;;;;;;15.30;99.90;;;15.00;74.33;101127.09;5051439;28;19931;-64
2021/05/20 00:59:37;;;;;;;;;;;15.30;99.90;;;14.94;74.36;101123.72;5051086;28;19978;-64
2021/05/20 01:02:04;;;;;;;;;;;15.30;99.90;;;14.97;74.55;101125.00;5052101;28;19924;-63
2021/05/20 01:04:32;;;;;;;;;;;15.30;99.90;;;14.95;74.35;101117.16;5051819;28;19929;-63
2021/05/20 01:06:59;;;;;;;;;;;15.30;99.90;;;14.91;74.42;101110.72;5051459;28;19925;-63
2021/05/20 01:09:27;;;;;;;;;;;15.20;99.90;;;14.83;75.56;101110.69;5051949;28;19932;-62
2021/05/20 01:11:55;;;;;;;;;;;15.20;99.90;;;14.78;75.62;101106.16;5052043;28;19972;-63
2021/05/20 01:14:23;;;;;;;;;;;15.10;99.90;;;14.71;75.44;101103.84;5051580;28;19932;-63
2021/05/20 01:16:50;;;;;;;;;;;15.00;99.90;;;14.62;75.50;101105.72;5051188;28;19929;-63
2021/05/20 01:19:17;;;;;;;;;;;14.90;99.90;;;14.54;75.97;101101.03;5051752;28;19928;-63
2021/05/20 01:21:45;;;;;;;;;;;14.90;99.90;;;14.52;75.91;101094.28;5052166;28;19925;-63
2021/05/20 01:24:13;;;;;;;;;;;14.80;99.90;;;14.51;75.53;101089.94;5051703;28;19979;-63
2021/05/20 01:26:41;;;;;;;;;;;14.80;99.90;;;14.46;75.55;101087.38;5050936;28;19929;-63
2021/05/20 01:29:09;;;;;;;;;;;14.80;99.90;;;14.48;75.21;101098.72;5051667;28;19925;-63
2021/05/20 01:31:36;;;;;;;;;;;14.80;99.90;;;14.51;74.98;101090.75;5051713;28;19944;-63
2021/05/20 01:34:04;;;;;;;;;;;14.80;99.90;;;14.52;73.96;101086.94;5051465;28;19925;-63
2021/05/20 01:36:31;;;;;;;;;;;14.90;99.90;;;14.56;72.24;101084.41;5050936;28;19975;-63
2021/05/20 01:39:01;;;;;;;;;;;14.90;99.90;;;14.59;72.19;101081.06;5051675;28;19925;-63
2021/05/20 01:41:29;;;;;;;;;;;14.90;99.90;;;14.68;70.97;101084.66;5051696;28;19925;-62
2021/05/20 01:43:56;;;;;;;;;;;15.00;99.90;;;14.82;69.69;101090.81;5051565;28;19975;-63
2021/05/20 01:46:24;;;;;;;;;;;15.10;99.90;;;14.95;69.23;101083.69;5050709;28;19925;-62
2021/05/20 01:48:53;;;;;;;;;;;15.20;99.90;;;15.01;68.61;101085.16;5039019;28;19929;-63
2021/05/20 01:51:21;;;;;;;;;;;15.30;99.90;;;15.04;68.42;101085.34;5031665;28;19979;-63
2021/05/20 01:53:50;;;;;;;;;;;15.40;99.90;;;15.09;68.02;101082.47;5031393;28;19940;-63
2021/05/20 01:56:19;;;;;;;;;;;15.50;99.90;;;15.12;67.65;101086.47;5030754;28;19929;-63
2021/05/20 01:58:47;;;;;;;;;;;15.50;99.90;;;15.03;67.79;101078.28;5031804;28;19932;-63
2021/05/20 02:01:15;;;;;;;;;;;15.50;99.90;;;15.03;67.68;101077.47;5031684;28;19925;-63
2021/05/20 02:03:42;;;;;;;;;;;15.40;99.90;;;15.04;67.53;101076.34;5031379;28;20378;-63
2021/05/20 02:06:10;;;;;;;;;;;15.40;99.90;;;15.11;67.03;101076.69;5030581;28;19925;-63
2021/05/20 02:08:38;;;;;;;;;;;15.50;99.90;;;15.15;67.92;101081.22;5031365;28;19929;-63
2021/05/20 02:11:06;;;;;;;;;;;15.50;99.90;;;14.99;68.89;101085.44;5034469;28;19925;-63
2021/05/20 02:13:35;;;;;;;;;;;15.40;99.90;;;14.79;69.91;101091.44;5034800;28;19959;-62
2021/05/20 02:16:02;;;;;;;;;;;15.20;99.90;;;14.55;70.89;101089.03;5034059;28;19925;-63
2021/05/20 02:18:29;;;;;;;;;;;14.90;99.90;;;14.29;71.35;101090.72;5034916;28;19926;-63
2021/05/20 02:20:57;;;;;;;;;;;14.70;99.90;;;14.03;74.02;101092.41;5034664;28;19925;-62
2021/05/20 02:23:24;;;;;;;;;;;14.50;99.90;;;13.92;75.60;101099.97;5034757;28;19925;-63
2021/05/20 02:25:51;;;;;;;;;;;14.30;99.90;;;13.81;75.92;101092.34;5034435;28;19929;-62
2021/05/20 02:28:18;;;;;;;;;;;14.20;99.90;;;13.65;76.56;101097.28;5034428;28;19941;-62
2021/05/20 02:30:47;;;;;;;;;;;14.10;99.90;;;13.59;77.75;101112.09;5034654;28;19932;-63
2021/05/20 02:33:14;;;;;;;;;;;14.00;99.90;;;13.56;76.95;101105.34;5034489;28;20424;-62
2021/05/20 02:35:41;;;;;;;;;;;13.90;99.90;;;13.51;76.49;101110.91;5034099;28;20363;-63
2021/05/20 02:38:08;;;;;;;;;;;13.90;99.90;;;13.35;77.62;101106.84;5034169;28;20358;-63
2021/05/20 02:40:36;;;;;;;;;;;13.70;99.90;;;13.21;78.34;101106.06;5034374;28;19929;-63
2021/05/20 02:43:04;;;;;;;;;;;13.60;99.90;;;13.04;78.74;101112.00;5034013;28;19929;-63
2021/05/20 02:45:31;;;;;;;;;;;13.50;99.90;;;12.80;79.65;101100.50;5034073;28;19952;-63
2021/05/20 02:47:59;;;;;;;;;;;13.30;99.90;;;12.71;80.68;101107.69;5033870;28;19932;-63
2021/05/20 02:50:27;;;;;;;;;;;13.20;99.90;;;12.76;80.66;101118.50;5034190;28;20383;-63
2021/05/20 02:52:54;;;;;;;;;;;13.20;99.90;;;12.83;80.73;101096.38;5034210;28;19929;-63
2021/05/20 02:55:24;;;;;;;;;;;13.30;99.90;;;12.83;82.16;101097.19;5034069;28;19924;-62
2021/05/20 02:57:53;;;;;;;;;;;13.30;99.90;;;12.90;81.93;101099.53;5033797;28;19933;-63
2021/05/20 03:00:21;;;;;;;;;;;13.40;99.90;;;13.00;81.03;101091.22;5033981;28;19929;-62
2021/05/20 03:02:49;;;;;;;;;;;13.40;99.90;;;13.08;80.45;101094.06;5034203;28;19971;-63
2021/05/20 03:05:18;;;;;;;;;;;13.50;99.90;;;13.12;78.97;101097.00;5033728;28;19926;-63
2021/05/20 03:07:45;;;;;;;;;;;13.50;99.90;;;13.02;78.81;101097.94;5033651;28;19926;-63
2021/05/20 03:10:13;;;;;;;;;;;13.50;99.90;;;13.09;78.51;101094.88;5033950;28;19979;-63
2021/05/20 03:12:40;;;;;;;;;;;13.50;99.90;;;13.09;77.65;101098.41;5033914;28;19936;-63
2021/05/20 03:15:08;;;;;;;;;;;13.50;99.90;;;13.13;77.54;101102.09;5033502;28;19979;-63
2021/05/20 03:17:36;;;;;;;;;;;13.50;99.90;;;13.16;77.24;101097.19;5033234;28;19936;-63
2021/05/20 03:20:05;;;;;;;;;;;13.50;99.90;;;13.14;77.28;101097.47;5033703;28;19926;-62
2021/05/20 03:22:33;;;;;;;;;;;13.40;99.90;;;13.06;78.10;101100.88;5033104;28;19956;-63
2021/05/20 03:25:00;;;;;;;;;;;13.40;99.90;;;13.00;79.79;101099.34;5033474;28;19979;-62
2021/05/20 03:27:28;;;;;;;;;;;13.40;99.90;;;12.97;79.31;101102.66;5032971;28;19933;-64
2021/05/20 03:29:55;;;;;;;;;;;13.40;99.90;;;12.96;79.67;101099.13;5033562;28;19925;-64
2021/05/20 03:32:22;;;;;;;;;;;13.40;99.90;;;12.92;79.58;101092.69;5033537;28;19925;-63
2021/05/20 03:34:49;;;;;;;;;;;13.40;99.90;;;12.92;79.40;101089.97;5032916;28;19947;-62
2021/05/20 03:37:16;;;;;;;;;;;13.30;99.90;;;12.70;79.61;101087.13;5032747;28;19929;-63
2021/05/20 03:39:45;;;;;;;;;;;13.20;99.90;;;12.47;80.09;101094.25;5033563;28;19932;-63
2021/05/20 03:42:12;;;;;;;;;;;13.00;99.90;;;12.33;81.63;101087.19;5033274;28;19926;-62
2021/05/20 03:44:39;;;;;;;;;;;12.90;99.90;;;12.28;81.50;101098.09;5032904;28;20785;-63
2021/05/20 03:47:07;;;;;;;;;;;12.70;99.90;;;12.26;81.54;101092.16;5032355;28;19925;-63
2021/05/20 03:49:34;;;;;;;;;;;12.70;99.90;;;12.27;81.65;101085.63;5033426;28;19929;-63
2021/05/20 03:52:01;;;;;;;;;;;12.70;99.90;;;12.26;81.54;101075.88;5032898;28;19933;-63
2021/05/20 03:54:28;;;;;;;;;;;12.70;99.90;;;12.21;82.07;101075.97;5032773;28;19929;-63
2021/05/20 03:56:57;;;;;;;;;;;12.70;99.90;;;12.09;81.30;101072.91;5032128;28;19932;-63
2021/05/20 03:59:24;;;;;;;;;;;12.60;99.90;;;11.95;80.98;101068.19;5033164;28;19932;-63
2021/05/20 04:01:51;;;;;;;;;;;12.50;99.90;;;11.94;81.16;101072.03;5032932;28;20307;-62
2021/05/20 04:04:18;;;;;;;;;;;12.40;99.90;;;11.90;81.77;101076.41;5032896;28;20350;-63
2021/05/20 04:06:46;;;;;;;;;;;12.40;99.90;;;12.03;81.97;101075.69;5032000;28;19925;-63
2021/05/20 04:09:13;;;;;;;;;;;12.50;99.90;;;12.16;81.97;101076.06;5032996;28;19932;-62
2021/05/20 04:11:40;;;;;;;;;;;12.60;99.90;;;12.26;81.24;101073.97;5032656;28;20386;-62
2021/05/20 04:14:08;;;;;;;;;;;12.60;99.90;;;12.33;81.01;101069.00;5032850;28;20341;-62
2021/05/20 04:16:36;;;;;;;;;;;12.70;99.90;;;12.35;81.63;101077.63;5031919;28;19925;-63
2021/05/20 04:19:04;;;;;;;;;;;12.80;99.90;;;12.42;81.15;101078.09;5032717;28;19926;-63
2021/05/20 04:21:33;;;;;;;;;;;12.70;99.90;;;12.41;81.34;101078.34;5032604;28;20372;-62
2021/05/20 04:24:00;;;;;;;;;;;12.80;99.90;;;12.42;80.32;101080.78;5032563;28;20298;-63
2021/05/20 04:26:28;;;;;;;;;;;12.80;99.90;;;12.39;79.52;101083.28;5031827;28;19932;-64
2021/05/20 04:28:55;;;;;;;;;;;12.70;99.90;;;12.35;80.31;101085.78;5040796;28;19929;-64
2021/05/20 04:31:23;;;;;;;;;;;12.60;99.90;;;12.33;80.67;101079.03;5052450;28;19932;-64
2021/05/20 04:33:51;;;;;;;;;;;12.60;99.90;;;12.31;80.46;101078.53;5052346;28;19925;-64
2021/05/20 04:36:18;;;;;;;;;;;12.60;99.90;;;12.34;80.53;101078.72;5051425;28;19932;-62
2021/05/20 04:38:45;;;;;;;;;;;12.60;99.90;;;12.32;80.40;101078.22;5052318;28;19928;-63
2021/05/20 04:41:12;;;;;;;;;;;12.60;99.90;;;12.43;80.46;101084.31;5052205;28;19936;-63
2021/05/20 04:43:39;;;;;;;;;;;12.80;99.90;;;12.49;79.82;101081.19;5052169;28;19936;-63
2021/05/20 04:46:07;;;;;;;;;;;12.80;99.90;;;12.59;79.12;101080.22;5051433;28;19986;-63
2021/05/20 04:48:35;;;;;;;;;;;12.90;99.90;;;12.58;79.00;101076.72;5052076;28;20383;-63
2021/05/20 04:51:02;;;;;;;;;;;12.90;99.90;;;12.82;77.85;101067.66;5052169;28;19925;-63
2021/05/20 04:53:29;;;;;;;;;;;13.10;99.90;;;13.03;76.42;101072.41;5051924;28;19929;-63
2021/05/20 04:55:57;;;;;;;;;;;13.30;99.90;;;13.27;74.78;101071.44;5051351;28;19929;-63
2021/05/20 04:58:24;;;;;;;;;;;13.50;99.90;;;13.48;74.00;101067.22;5051983;28;19931;-63
2021/05/20 05:00:51;;;;;;;;;;;13.70;99.90;;;13.50;73.76;101070.44;5052112;28;20467;-63
2021/05/20 05:03:19;;;;;;;;;;;;;;;13.56;73.42;101070.03;5051746;28;19932;-63
2021/05/20 05:05:47;;;;;;;;;;;13.80;99.90;;;13.65;72.36;101070.94;5051754;28;20357;-64
2021/05/20 05:08:14;;;;;;;;;;;14.00;99.90;;;13.80;71.74;101069.00;5051555;28;19924;-63
2021/05/20 05:10:42;;;;;;;;;;;14.10;99.90;;;13.84;71.70;101070.00;5052084;28;20010;-63
2021/05/20 05:13:09;;;;;;;;;;;14.20;99.90;;;13.84;71.41;101070.81;5051809;28;19931;-62
2021/05/20 05:15:36;;;;;;;;;;;14.20;99.90;;;13.87;71.09;101069.38;5051310;28;20314;-62
2021/05/20 05:18:04;;;;;;;;;;;14.30;99.90;;;13.91;70.71;101073.09;5051279;28;19925;-63
2021/05/20 05:20:31;;;;;;;;;;;14.30;99.90;;;13.90;71.07;101072.28;5051829;28;19931;-63
2021/05/20 05:22:59;;;;;;;;;;;14.30;99.90;;;13.84;71.24;101075.41;5051031;28;19932;-62
2021/05/20 05:25:26;;;;;;;;;;;14.20;99.90;;;13.85;70.84;101080.56;5051369;28;19932;-65
2021/05/20 05:27:54;;;;;;;;;;;14.20;99.90;;;13.90;70.83;101083.16;5051298;28;19929;-62
2021/05/20 05:30:22;;;;;;;;;;;14.20;99.90;;;13.93;70.80;101082.56;5051706;28;19979;-63
2021/05/20 05:32:49;;;;;;;;;;;14.30;99.90;;;13.98;70.04;101078.94;5051391;28;20309;-63
2021/05/20 05:35:16;;;;;;;;;;;14.30;99.90;;;13.95;70.72;101085.00;5051396;28;19924;-63
2021/05/20 05:37:43;;;;;;;;;;;14.30;99.90;;;14.07;69.64;101079.81;5050982;28;19924;-63
2021/05/20 05:40:12;;;;;;;;;;;14.40;99.90;;;14.82;68.48;101076.38;5051929;28;19978;-63
2021/05/20 05:42:39;;;;;;;;;;;14.80;99.90;;;16.22;63.15;101078.94;5051450;28;19932;-64
2021/05/20 05:45:07;;;;;;;;;;;16.70;99.90;;;17.53;58.33;101074.44;5052718;28;19931;-63
2021/05/20 05:47:35;;;;;;;;;;;18.00;99.90;;;18.75;54.98;101073.22;5054758;28;19950;-63
2021/05/20 05:50:06;;;;;;;;;;;19.00;99.90;;;20.00;51.25;101074.97;5055515;28;19929;-63
2021/05/20 05:52:33;;;;;;;;;;;19.60;99.90;;;21.28;47.64;101070.31;5055313;28;19935;-63
2021/05/20 05:55:01;;;;;;;;;;;21.10;99.90;;;22.26;45.08;101063.50;5054971;28;19955;-63
2021/05/20 05:57:29;;;;;;;;;;;22.00;99.90;;;22.95;42.70;101054.22;5054327;28;19925;-63
2021/05/20 05:59:56;;;;;;;;;;;22.70;99.90;;;23.60;41.87;101056.88;5055442;28;19929;-63
2021/05/20 06:02:24;;;;;;;;;;;;;;;24.36;39.45;101055.56;5055219;28;19929;-63
2021/05/20 06:04:52;;;;;;;;;;;24.10;99.90;;;24.73;38.76;101048.09;5055006;28;19925;-63
2021/05/20 06:07:20;;;;;;;;;;;24.80;99.90;;;25.16;37.54;101048.50;5054162;28;19932;-63
2021/05/20 06:09:47;;;;;;;;;;;25.20;99.90;;;24.82;38.39;101056.91;5055112;28;20305;-63
2021/05/20 06:12:14;;;;;;;;;;;25.20;99.90;;;25.20;36.94;101049.34;5054964;28;19928;-63
2021/05/20 06:14:42;;;;;;;;;;;25.50;99.90;;;24.17;38.37;101061.25;5050442;28;19932;-63
2021/05/20 06:17:10;;;;;;;;;;;25.30;99.90;;;23.28;40.10;101065.44;5034113;28;19925;-63
2021/05/20 06:19:37;;;;;;;;;;;24.60;99.90;;;23.75;40.15;101067.78;5034981;28;19933;-63
2021/05/20 06:22:05;;;;;;;;;;;24.40;99.90;;;23.88;39.28;101066.38;5034928;28;19925;-63
2021/05/20 06:24:32;;;;;;;;;;;24.80;99.90;;;24.88;38.22;101054.56;5034474;28;20345;-63
2021/05/20 06:26:59;;;;;;;;;;;25.10;99.90;;;25.17;37.09;101053.63;5033882;28;19925;-63
2021/05/20 06:29:26;;;;;;;;;;;25.80;99.90;;;24.72;37.60;101059.50;5034974;28;19932;-63
2021/05/20 06:31:55;;;;;;;;;;;25.80;99.90;;;24.35;38.14;101065.03;5034619;28;19936;-63
2021/05/20 06:34:22;;;;;;;;;;;25.60;99.90;;;24.33;37.90;101053.56;5034451;28;19925;-63
2021/05/20 06:36:49;;;;;;;;;;;25.50;99.90;;;23.95;39.25;101060.94;5033593;28;20379;-63
2021/05/20 06:39:16;;;;;;;;;;;25.20;99.90;;;23.88;39.62;101062.81;5034553;28;19925;-63
2021/05/20 06:41:43;;;;;;;;;;;25.10;99.90;;;24.21;39.27;101064.84;5034828;28;19944;-63
2021/05/20 06:44:11;;;;;;;;;;;25.50;99.90;;;23.99;39.64;101068.47;5034069;28;20417;-63
2021/05/20 06:46:38;;;;;;;;;;;25.60;99.90;;;24.35;39.47;101070.56;5033379;28;20374;-63
2021/05/20 06:49:08;;;;;;;;;;;25.80;99.90;;;24.60;38.62;101076.38;5034668;28;19925;-63
2021/05/20 06:51:35;;;;;;;;;;;26.30;99.90;;;24.58;38.96;101075.97;5034266;28;20382;-63
2021/05/20 06:54:02;;;;;;;;;;;26.70;99.90;;;24.74;38.85;101082.88;5033850;28;19929;-63
2021/05/20 06:56:30;;;;;;;;;;;26.90;99.90;;;25.16;38.40;101081.72;5032381;28;19925;-63
2021/05/20 07:01:46;;;;;;;;;;;27.50;99.90;;;24.08;40.03;101091.91;5034434;28;19979;-63
2021/05/20 07:04:15;;;;;;;;;;;26.80;99.90;;;23.29;42.62;101104.84;5033706;28;19929;-63
2021/05/20 07:06:42;;;;;;;;;;;;;;;23.03;42.85;101110.31;5033315;28;19929;-63
2021/05/20 07:09:10;;;;;;;;;;;24.70;99.90;;;22.80;44.81;101110.28;5033560;28;19925;-65
2021/05/20 07:11:39;;;;;;;;;;;23.90;99.90;;;22.53;44.94;101112.09;5033994;28;19925;-63
2021/05/20 07:14:06;;;;;;;;;;;23.90;99.90;;;22.31;44.88;101115.59;5033615;28;19936;-63
2021/05/20 07:16:34;;;;;;;;;;;23.50;99.90;;;22.20;45.53;101112.59;5033062;28;20402;-62
2021/05/20 07:19:01;;;;;;;;;;;23.10;99.90;;;22.34;46.27;101115.63;5033686;28;19975;-62
2021/05/20 07:21:29;;;;;;;;;;;23.00;99.90;;;22.41;46.16;101117.75;5033899;28;19925;-63
2021/05/20 07:23:57;;;;;;;;;;;22.90;99.90;;;22.48;47.09;101120.66;5033575;28;19929;-63
2021/05/20 07:26:24;;;;;;;;;;;22.80;99.90;;;22.59;45.72;101115.34;5033010;28;19925;-62
2021/05/20 07:28:51;;;;;;;;;;;22.90;99.90;;;22.55;45.91;101118.06;5033736;28;19932;-64
2021/05/20 07:31:18;;;;;;;;;;;22.80;99.90;;;22.47;44.73;101121.81;5033526;28;19925;-64
2021/05/20 07:33:45;;;;;;;;;;;22.80;99.90;;;22.48;45.11;101117.91;5033235;28;19929;-64
2021/05/20 07:36:12;;;;;;;;;;;22.70;99.90;;;22.32;45.54;101125.41;5032544;28;19931;-65
2021/05/20 07:38:41;;;;;;;;;;;22.70;99.90;;;22.16;46.65;101114.44;5033530;28;19936;-62
2021/05/20 07:41:08;;;;;;;;;;;22.80;99.90;;;22.38;45.90;101107.44;5033530;28;20306;-64
2021/05/20 07:43:35;;;;;;;;;;;22.90;99.90;;;22.22;46.33;101117.75;5033157;28;19925;-64
2021/05/20 07:46:02;;;;;;;;;;;22.90;99.90;;;22.51;46.05;101108.91;5032362;28;19929;-64
2021/05/20 07:48:33;;;;;;;;;;;22.90;99.90;;;22.73;45.10;101119.22;5033321;28;19933;-64
2021/05/20 07:51:00;;;;;;;;;;;23.10;99.90;;;22.86;43.95;101114.31;5033346;28;19975;-64
2021/05/20 07:53:28;;;;;;;;;;;23.10;99.90;;;22.85;45.01;101115.50;5033027;28;19925;-64
2021/05/20 07:55:56;;;;;;;;;;;23.10;99.90;;;22.85;45.20;101118.25;5032492;28;19932;-64
2021/05/20 07:58:24;;;;;;;;;;;23.20;99.90;;;23.01;43.98;101116.19;5032907;28;20363;-64
2021/05/20 08:00:51;;;;;;;;;;;;;;;23.33;44.88;101111.25;5033103;28;19925;-64
2021/05/20 08:03:24;;;;;;;;;;;23.50;99.90;;;23.52;44.03;101115.91;5050867;28;19928;-64
2021/05/20 08:05:58;;;;;;;;;;;23.70;99.90;;;23.76;43.87;101119.06;5052410;28;19929;-64
2021/05/20 08:08:31;;;;;;;;;;;;;;;23.90;42.88;101113.75;5052475;28;20027;-64
2021/05/20 08:11:03;;;;;;;;;;;24.10;99.90;;;24.02;42.84;101114.69;5052791;28;19932;-64
2021/05/20 08:13:31;;;;;;;;;;;24.20;99.90;;;23.90;42.64;101124.78;5052648;28;20378;-64
2021/05/20 08:16:00;;;;;;;;;;;24.10;99.90;;;23.92;42.75;101111.41;5051871;28;19925;-64
2021/05/20 08:18:27;;;;;;;;;;;24.10;99.90;;;24.08;43.28;101108.47;5052644;28;19932;-64
2021/05/20 08:20:54;;;;;;;;;;;24.30;99.90;;;24.27;42.52;101107.56;5052526;28;19928;-64
2021/05/20 08:23:22;;;;;;;;;;;24.40;99.90;;;24.39;42.63;101113.66;5052496;28;20428;-64
2021/05/20 08:25:49;;;;;;;;;;;24.50;99.90;;;24.42;41.94;101103.81;5052037;28;19924;-64
2021/05/20 08:28:18;;;;;;;;;;;24.60;99.90;;;24.46;42.06;101107.44;5052207;28;20374;-64
2021/05/20 08:30:45;;;;;;;;;;;24.70;99.90;;;24.61;42.74;101111.16;5052474;28;19925;-64
2021/05/20 08:33:13;;;;;;;;;;;24.80;99.90;;;24.77;42.13;101098.72;5052122;28;19998;-64
2021/05/20 08:35:40;;;;;;;;;;;24.90;99.90;;;24.88;41.38;101099.63;5051878;28;19982;-64
2021/05/20 08:38:07;;;;;;;;;;;25.10;99.90;;;25.10;42.01;101094.31;5051879;28;19931;-64
2021/05/20 08:40:35;;;;;;;;;;;25.30;99.90;;;25.12;42.40;101098.28;5052400;28;19979;-64
2021/05/20 08:43:02;;;;;;;;;;;25.30;99.90;;;25.02;41.75;101098.97;5052020;28;19936;-64
2021/05/20 08:45:32;;;;;;;;;;;25.20;99.90;;;25.03;41.65;101095.03;5051894;28;19928;-64
2021/05/20 08:48:00;;;;;;;;;;;25.30;99.90;;;25.06;41.63;101093.47;5051767;28;19924;-64
2021/05/20 08:50:30;;;;;;;;;;;25.30;99.90;;;25.10;42.63;101094.31;5052180;28;19932;-64
2021/05/20 08:52:57;;;;;;;;;;;25.40;99.90;;;25.19;43.00;101100.31;5051696;28;20310;-64
2021/05/20 08:55:27;;;;;;;;;;;25.40;99.90;;;25.22;40.85;101088.47;5051230;28;20382;-64
2021/05/20 08:57:55;;;;;;;;;;;25.50;99.90;;;25.24;40.87;101099.97;5051639;28;19925;-64
2021/05/20 09:00:24;;;;;;;;;;;25.60;99.90;;;25.37;41.95;101092.97;5052229;28;20015;-64
2021/05/20 09:02:53;;;;;;;;;;;25.60;99.90;;;25.49;41.54;101092.69;5051900;28;19929;-64
2021/05/20 09:05:21;;;;;;;;;;;25.70;99.90;;;25.62;41.00;101093.19;5051620;28;19951;-64
2021/05/20 09:07:53;;;;;;;;;;;25.90;99.90;;;25.76;41.16;101088.53;5051501;28;20435;-64
2021/05/20 09:10:23;;;;;;;;;;;25.90;99.90;;;25.65;40.25;101082.13;5052137;28;20040;-64
2021/05/20 09:12:52;;;;;;;;;;;26.00;99.90;;;25.75;40.12;101081.41;5051860;28;19925;-64
2021/05/20 09:15:25;;;;;;;;;;;26.10;99.90;;;25.76;39.91;101084.97;5051716;28;19925;-64
2021/05/20 09:18:03;;;;;;;;;;;26.40;99.90;;;25.93;38.77;101076.75;5051393;28;19929;-64
2021/05/20 09:20:30;;;;;;;;;;;26.40;99.90;;;25.39;38.78;101085.06;5054225;28;19925;-64
2021/05/20 09:23:06;;;;;;;;;;;26.10;99.90;;;25.25;39.75;101079.41;5055801;28;19929;-64
2021/05/20 09:25:35;;;;;;;;;;;26.00;99.90;;;25.29;39.19;101085.78;5055621;28;19936;-64
2021/05/20 09:28:04;;;;;;;;;;;25.90;99.90;;;25.39;39.71;101074.00;5055046;28;19931;-64
2021/05/20 09:30:32;;;;;;;;;;;26.00;99.90;;;25.71;41.27;101080.59;5056029;28;20464;-64
2021/05/20 09:33:05;;;;;;;;;;;26.20;99.90;;;25.90;38.11;101077.53;5055489;28;19928;-64
2021/05/20 09:35:33;;;;;;;;;;;26.40;99.90;;;26.07;40.34;101081.59;5055590;28;19929;-64
2021/05/20 09:38:03;;;;;;;;;;;26.60;99.90;;;26.32;39.08;101076.19;5054952;28;19929;-64
2021/05/20 09:40:34;;;;;;;;;;;26.70;99.90;;;26.35;37.48;101073.44;5055765;28;19924;-64
2021/05/20 09:43:02;;;;;;;;;;;26.70;99.90;;;25.94;39.18;101069.25;5055318;28;19974;-64
2021/05/20 09:45:29;;;;;;;;;;;26.60;99.90;;;26.39;39.72;101078.97;5055474;28;19925;-64
2021/05/20 09:48:05;;;;;;;;;;;26.80;99.90;;;26.66;37.33;101079.47;5054885;28;19925;-65
2021/05/20 09:50:37;;;;;;;;;;;27.00;99.90;;;26.40;38.51;101080.56;5037674;28;19929;-64
2021/05/20 09:53:09;;;;;;;;;;;27.00;99.90;;;26.25;37.47;101084.47;5035100;28;19972;-64
2021/05/20 09:55:37;;;;;;;;;;;26.90;99.90;;;26.50;38.96;101082.59;5035039;28;19925;-64
2021/05/20 09:58:09;;;;;;;;;;;27.00;99.90;;;26.55;40.19;101084.97;5034719;28;19934;-64
2021/05/20 10:00:38;;;;;;;;;;;27.10;99.90;;;26.29;40.87;101086.09;5035551;28;19925;-64
2021/05/20 10:03:08;;;;;;;;;;;26.90;99.90;;;26.14;41.52;101080.84;5035115;28;19925;-64
2021/05/20 10:05:37;;;;;;;;;;;26.70;99.90;;;25.92;41.96;101083.50;5035236;28;19936;-64
2021/05/20 10:08:06;;;;;;;;;;;26.50;99.90;;;25.85;42.77;101088.97;5034395;28;19929;-64
2021/05/20 10:10:36;;;;;;;;;;;26.40;99.90;;;25.73;42.42;101088.50;5035275;28;19975;-64
2021/05/20 10:13:05;;;;;;;;;;;26.30;99.90;;;25.64;43.58;101094.38;5034863;28;20370;-64
2021/05/20 10:15:33;;;;;;;;;;;26.20;99.90;;;25.47;43.62;101092.25;5034906;28;19936;-64
2021/05/20 10:18:05;;;;;;;;;;;26.10;99.90;;;25.46;44.33;101090.66;5034456;28;20374;-65
2021/05/20 10:20:34;;;;;;;;;;;26.00;99.90;;;25.51;44.20;101093.09;5034939;28;19936;-64
2021/05/20 10:23:03;;;;;;;;;;;26.10;99.90;;;25.42;43.62;101093.41;5034760;28;19925;-64
2021/05/20 10:25:30;;;;;;;;;;;25.90;99.90;;;25.19;45.25;101092.03;5034820;28;20383;-65
2021/05/20 10:27:59;;;;;;;;;;;25.60;99.90;;;25.07;45.08;101084.00;5034311;28;19932;-64
2021/05/20 10:30:27;;;;;;;;;;;25.60;99.90;;;25.26;44.90;101086.56;5034731;28;19925;-64
2021/05/20 10:32:59;;;;;;;;;;;25.80;99.90;;;25.47;44.49;101092.25;5034654;28;19936;-64
2021/05/20 10:35:41;;;;;;;;;;;26.00;99.90;;;25.31;44.85;101094.50;5034722;28;20367;-64
2021/05/20 10:38:09;;;;;;;;;;;25.90;99.90;;;25.48;44.04;101088.28;5034152;28;20287;-64
2021/05/20 10:40:36;;;;;;;;;;;26.00;99.90;;;25.32;43.55;101088.56;5034658;28;19925;-64
2021/05/20 10:43:05;;;;;;;;;;;25.90;99.90;;;25.08;45.18;101091.13;5033812;28;19925;-64
2021/05/20 10:45:34;;;;;;;;;;;25.70;99.90;;;25.05;45.33;101086.38;5034409;28;19983;-64
2021/05/20 10:48:19;;;;;;;;;;;25.60;99.90;;;24.98;45.23;101098.97;5033828;28;19932;-64
2021/05/20 10:51:04;;;;;;;;;;;25.50;99.90;;;24.85;45.45;101094.06;5034789;28;20379;-64
2021/05/20 10:53:48;;;;;;;;;;;25.40;99.90;;;24.81;45.18;101094.03;5034086;28;19929;-64
2021/05/20 10:56:49;;;;;;;;;;;25.40;99.90;;;24.78;45.54;101100.28;5033472;28;19925;-64
2021/05/20 10:59:42;;;;;;;;;;;25.40;99.90;;;24.77;43.94;101093.19;5034253;28;20019;-64
2021/05/20 11:02:49;;;;;;;;;;;25.30;99.90;;;24.84;45.18;101095.22;5034462;28;19972;-65
2021/05/20 11:05:53;;;;;;;;;;;25.30;99.90;;;24.88;44.67;101099.63;5033909;28;20183;-64
2021/05/20 11:09:02;;;;;;;;;;;25.40;99.90;;;24.93;44.28;101098.47;5033364;28;19925;-64
2021/05/20 11:11:51;;;;;;;;;;;25.50;99.90;;;24.89;44.80;101095.69;5034304;28;20298;-64
2021/05/20 11:14:35;;;;;;;;;;;25.40;99.90;;;25.33;44.54;101092.94;5033709;28;19931;-64
2021/05/20 11:17:29;;;;;;;;;;;25.80;99.90;;;25.60;44.90;101099.09;5032845;28;19926;-64
2021/05/20 11:20:43;;;;;;;;;;;26.00;99.90;;;25.58;43.41;101093.16;5033795;28;20371;-64
2021/05/20 11:23:22;;;;;;;;;;;26.10;99.90;;;25.60;43.63;101090.78;5033831;28;20333;-64